createdAt,value
2018-02-16T00:00:14.025Z,99.91
2018-02-16T00:02:49.275Z,99.88
2018-02-16T00:05:24.451Z,99.88
2018-02-16T00:07:59.107Z,99.78
2018-02-16T00:10:34.134Z,99.70
2018-02-16T00:13:10.459Z,99.53
2018-02-16T00:15:45.430Z,99.60
2018-02-16T00:18:20.295Z,99.53
2018-02-16T00:20:55.251Z,99.63
2018-02-16T00:23:30.431Z,99.68
2018-02-16T00:26:05.079Z,99.79
2018-02-16T00:28:40.458Z,99.75
2018-02-16T00:31:16.058Z,99.63
2018-02-16T00:33:51.183Z,99.55
2018-02-16T00:36:26.447Z,99.48
2018-02-16T00:39:01.595Z,99.48
2018-02-16T00:41:36.427Z,99.59
2018-02-16T00:44:11.529Z,99.61
2018-02-16T00:46:46.484Z,99.59
2018-02-16T00:49:21.603Z,99.58
2018-02-16T00:51:56.171Z,99.78
2018-02-16T00:54:31.214Z,99.98
2018-02-16T00:57:05.556Z,99.98
2018-02-16T00:59:40.991Z,99.89
2018-02-16T01:02:16.031Z,99.74
2018-02-16T01:04:51.063Z,99.63
2018-02-16T01:07:25.723Z,99.62
2018-02-16T01:10:01.338Z,99.58
2018-02-16T01:12:36.347Z,99.40
2018-02-16T01:15:11.241Z,99.55
2018-02-16T01:17:46.247Z,99.53
2018-02-16T01:20:21.378Z,99.45
2018-02-16T01:22:56.175Z,99.32
2018-02-16T01:25:31.215Z,99.39
2018-02-16T01:28:06.265Z,99.40
2018-02-16T01:30:41.337Z,99.44
2018-02-16T01:33:15.927Z,99.67
2018-02-16T01:35:51.306Z,99.78
2018-02-16T01:38:26.298Z,99.86
2018-02-16T01:41:01.399Z,100.00
2018-02-16T01:43:36.427Z,100.00
2018-02-16T01:46:11.587Z,99.98
2018-02-16T01:48:46.699Z,99.84
2018-02-16T01:51:21.663Z,99.87
2018-02-16T01:53:56.391Z,100.00
2018-02-16T01:56:31.258Z,100.00
2018-02-16T01:59:05.713Z,99.96
2018-02-16T02:01:40.658Z,99.78
2018-02-16T02:04:15.823Z,99.95
2018-02-16T02:06:50.481Z,100.00
2018-02-16T02:09:25.543Z,100.00
2018-02-16T02:12:00.414Z,100.00
2018-02-16T02:14:35.323Z,99.86
2018-02-16T02:17:10.721Z,99.86
2018-02-16T02:19:45.127Z,99.72
2018-02-16T02:22:20.459Z,99.43
2018-02-16T02:24:54.844Z,99.33
2018-02-16T02:27:30.074Z,99.61
2018-02-16T02:30:05.303Z,99.77
2018-02-16T02:32:40.307Z,100.00
2018-02-16T02:35:15.285Z,100.00
2018-02-16T02:37:50.323Z,100.00
2018-02-16T02:40:25.387Z,100.00
2018-02-16T02:43:00.656Z,100.00
2018-02-16T02:45:35.634Z,100.00
2018-02-16T02:48:10.837Z,100.00
2018-02-16T02:50:45.595Z,100.00
2018-02-16T02:53:20.813Z,100.00
2018-02-16T02:55:55.429Z,100.00
2018-02-16T02:58:30.475Z,100.00
2018-02-16T03:01:05.755Z,100.00
2018-02-16T03:03:40.632Z,100.00
2018-02-16T03:06:15.723Z,100.00
2018-02-16T03:08:50.815Z,100.00
2018-02-16T03:11:25.730Z,100.00
2018-02-16T03:14:00.796Z,100.00
2018-02-16T03:16:35.823Z,100.00
2018-02-16T03:19:10.899Z,100.00
2018-02-16T03:21:45.651Z,99.95
2018-02-16T03:24:20.702Z,99.90
2018-02-16T03:26:55.551Z,99.73
2018-02-16T03:29:30.926Z,99.60
2018-02-16T03:32:05.546Z,99.54
2018-02-16T03:34:40.607Z,99.48
2018-02-16T03:37:15.516Z,99.40
2018-02-16T03:39:50.439Z,99.27
2018-02-16T03:42:25.632Z,99.04
2018-02-16T03:45:00.611Z,98.76
2018-02-16T03:47:35.607Z,98.65
2018-02-16T03:50:10.926Z,98.58
2018-02-16T03:52:46.058Z,98.54
2018-02-16T03:55:21.059Z,98.40
2018-02-16T03:57:56.431Z,98.47
2018-02-16T04:00:31.463Z,98.27
2018-02-16T04:03:06.546Z,98.24
2018-02-16T04:05:41.878Z,97.86
2018-02-16T04:08:16.819Z,97.64
2018-02-16T04:10:51.975Z,97.66
2018-02-16T04:13:27.368Z,97.67
2018-02-16T04:16:02.499Z,97.61
2018-02-16T04:18:37.619Z,97.60
2018-02-16T04:21:12.659Z,97.47
2018-02-16T04:23:47.615Z,97.63
2018-02-16T04:26:22.786Z,97.70
2018-02-16T04:28:57.159Z,97.50
2018-02-16T04:31:31.999Z,97.24
2018-02-16T04:34:07.149Z,97.35
2018-02-16T04:36:41.679Z,97.34
2018-02-16T04:39:16.778Z,97.16
2018-02-16T04:41:51.702Z,97.16
2018-02-16T04:44:27.183Z,97.02
2018-02-16T04:47:01.795Z,97.21
2018-02-16T04:49:36.739Z,97.22
2018-02-16T04:52:11.880Z,97.20
2018-02-16T04:54:46.726Z,97.16
2018-02-16T04:57:21.670Z,97.28
2018-02-16T04:59:56.719Z,97.42
2018-02-16T05:02:31.715Z,97.29
2018-02-16T05:05:06.606Z,97.11
2018-02-16T05:07:41.607Z,97.03
2018-02-16T05:10:16.902Z,96.98
2018-02-16T05:12:51.692Z,96.81
2018-02-16T05:15:26.948Z,96.67
2018-02-16T05:18:01.702Z,96.60
2018-02-16T05:20:36.860Z,96.78
2018-02-16T05:23:12.087Z,96.81
2018-02-16T05:25:47.037Z,96.80
2018-02-16T05:28:22.157Z,97.07
2018-02-16T05:30:56.735Z,96.93
2018-02-16T05:33:31.675Z,96.95
2018-02-16T05:36:07.243Z,96.85
2018-02-16T05:38:42.872Z,97.05
2018-02-16T05:41:17.915Z,97.16
2018-02-16T05:43:52.867Z,97.32
2018-02-16T05:46:27.463Z,97.36
2018-02-16T05:49:03.582Z,97.17
2018-02-16T05:51:38.706Z,97.04
2018-02-16T05:54:13.719Z,97.15
2018-02-16T05:56:48.394Z,97.10
2018-02-16T05:59:23.283Z,96.92
2018-02-16T06:01:58.227Z,96.83
2018-02-16T06:04:33.120Z,96.66
2018-02-16T06:07:08.075Z,96.61
2018-02-16T06:09:42.956Z,96.58
2018-02-16T06:12:18.007Z,96.74
2018-02-16T06:14:52.842Z,96.84
2018-02-16T06:17:27.847Z,96.79
2018-02-16T06:20:03.432Z,96.81
2018-02-16T06:22:38.812Z,96.80
2018-02-16T06:25:13.916Z,96.90
2018-02-16T06:27:48.327Z,96.94
2018-02-16T06:30:23.151Z,96.90
2018-02-16T06:32:58.181Z,96.80
2018-02-16T06:35:33.130Z,96.99
2018-02-16T06:38:08.310Z,97.07
2018-02-16T06:40:43.339Z,97.06
2018-02-16T06:43:18.956Z,97.01
2018-02-16T06:45:53.411Z,97.07
2018-02-16T06:48:28.019Z,97.06
2018-02-16T06:51:02.735Z,97.01
2018-02-16T06:53:37.971Z,96.99
2018-02-16T06:56:13.122Z,97.09
2018-02-16T06:58:47.775Z,97.21
2018-02-16T07:01:23.029Z,97.29
2018-02-16T07:03:57.491Z,97.22
2018-02-16T07:06:33.587Z,97.26
2018-02-16T07:09:08.539Z,97.33
2018-02-16T07:11:43.311Z,97.45
2018-02-16T07:14:18.255Z,97.44
2018-02-16T07:16:53.402Z,97.46
2018-02-16T07:19:28.270Z,97.31
2018-02-16T07:22:03.227Z,97.20
2018-02-16T07:24:38.110Z,97.07
2018-02-16T07:27:13.339Z,96.58
2018-02-16T07:29:48.195Z,96.37
2018-02-16T07:32:23.218Z,96.28
2018-02-16T07:34:58.087Z,96.29
2018-02-16T07:37:32.871Z,96.42
2018-02-16T07:40:07.647Z,96.47
2018-02-16T07:42:42.890Z,96.51
2018-02-16T07:45:17.431Z,96.55
2018-02-16T07:47:52.058Z,96.43
2018-02-16T07:50:27.252Z,96.38
2018-02-16T07:53:02.098Z,96.31
2018-02-16T07:55:37.175Z,96.02
2018-02-16T07:58:12.373Z,95.75
2018-02-16T08:00:47.015Z,95.46
2018-02-16T08:03:22.422Z,94.80
2018-02-16T08:05:57.174Z,94.53
2018-02-16T08:08:32.015Z,93.81
2018-02-16T08:11:07.202Z,93.19
2018-02-16T08:13:42.195Z,93.21
2018-02-16T08:16:17.335Z,93.49
2018-02-16T08:18:52.190Z,93.50
2018-02-16T08:21:27.260Z,92.47
2018-02-16T08:24:02.311Z,91.57
2018-02-16T08:26:37.563Z,89.64
2018-02-16T08:29:12.804Z,89.28
2018-02-16T08:31:47.445Z,89.02
2018-02-16T08:34:22.695Z,89.07
2018-02-16T08:36:58.251Z,88.34
2018-02-16T08:39:33.150Z,88.76
2018-02-16T08:42:08.229Z,87.49
2018-02-16T08:44:43.494Z,87.15
2018-02-16T08:47:18.311Z,87.46
2018-02-16T08:49:53.171Z,87.64
2018-02-16T08:52:28.542Z,87.20
2018-02-16T08:55:03.477Z,87.20
2018-02-16T08:57:38.339Z,86.58
2018-02-16T09:00:13.343Z,86.08
2018-02-16T09:02:48.510Z,83.98
2018-02-16T09:05:23.299Z,84.13
2018-02-16T09:07:58.547Z,84.05
2018-02-16T09:10:33.671Z,84.96
2018-02-16T09:13:08.603Z,83.01
2018-02-16T09:15:43.655Z,82.02
2018-02-16T09:18:18.711Z,81.21
2018-02-16T09:20:53.639Z,80.27
2018-02-16T09:23:29.195Z,80.49
2018-02-16T09:26:04.223Z,81.03
2018-02-16T09:28:39.011Z,80.48
2018-02-16T09:31:14.235Z,80.85
2018-02-16T09:33:49.317Z,81.27
2018-02-16T09:36:24.305Z,81.12
2018-02-16T09:39:00.067Z,80.59
2018-02-16T09:41:35.248Z,79.82
2018-02-16T09:44:11.571Z,80.99
2018-02-16T09:46:46.021Z,81.58
2018-02-16T09:49:21.478Z,80.77
2018-02-16T09:51:56.491Z,78.24
2018-02-16T09:54:31.440Z,76.86
2018-02-16T09:57:06.343Z,76.04
2018-02-16T09:59:41.388Z,74.99
2018-02-16T10:02:16.639Z,74.46
2018-02-16T10:04:51.619Z,74.92
2018-02-16T10:07:27.344Z,73.75
2018-02-16T10:10:01.579Z,73.51
2018-02-16T10:12:36.414Z,73.44
2018-02-16T10:15:11.763Z,73.40
2018-02-16T10:17:46.391Z,73.52
2018-02-16T10:20:21.376Z,73.56
2018-02-16T10:22:56.419Z,73.43
2018-02-16T10:25:31.311Z,72.23
2018-02-16T10:28:06.440Z,72.08
2018-02-16T10:30:41.258Z,72.37
2018-02-16T10:33:15.948Z,71.74
2018-02-16T10:35:51.282Z,72.47
2018-02-16T10:38:25.986Z,72.35
2018-02-16T10:41:01.307Z,71.55
2018-02-16T10:43:35.739Z,71.25
2018-02-16T10:46:11.686Z,72.72
2018-02-16T10:48:46.535Z,73.25
2018-02-16T10:51:21.498Z,72.94
2018-02-16T10:53:56.595Z,72.99
2018-02-16T10:56:31.551Z,73.68
2018-02-16T10:59:06.604Z,74.23
2018-02-16T11:01:44.991Z,74.64
2018-02-16T11:07:24.468Z,74.34
2018-02-16T11:09:59.447Z,74.32
2018-02-16T11:12:34.438Z,75.05
2018-02-16T11:15:09.591Z,75.07
2018-02-16T11:17:44.743Z,73.73
2018-02-16T11:20:19.778Z,73.08
2018-02-16T11:22:54.776Z,72.28
2018-02-16T11:25:29.847Z,72.86
2018-02-16T11:28:04.794Z,72.35
2018-02-16T11:30:39.890Z,71.78
2018-02-16T11:33:14.962Z,71.94
2018-02-16T11:35:49.533Z,72.17
2018-02-16T11:38:24.679Z,70.22
2018-02-16T11:40:59.486Z,69.72
2018-02-16T11:43:34.553Z,71.01
2018-02-16T11:46:09.023Z,71.84
2018-02-16T11:48:43.983Z,72.54
2018-02-16T11:51:18.843Z,73.36
2018-02-16T11:53:53.983Z,73.12
2018-02-16T11:56:29.218Z,73.80
2018-02-16T11:59:03.355Z,74.72
2018-02-16T12:01:38.694Z,74.29
2018-02-16T12:04:13.598Z,72.35
2018-02-16T12:06:48.532Z,73.44
2018-02-16T12:09:23.811Z,72.48
2018-02-16T12:11:58.600Z,72.62
2018-02-16T12:14:33.663Z,72.93
2018-02-16T12:17:08.735Z,73.13
2018-02-16T12:19:43.598Z,73.75
2018-02-16T12:22:17.852Z,74.01
2018-02-16T12:24:52.485Z,74.07
2018-02-16T12:27:27.148Z,73.71
2018-02-16T12:30:01.602Z,73.81
2018-02-16T12:32:36.655Z,74.12
2018-02-16T12:35:11.944Z,74.12
2018-02-16T12:37:46.623Z,73.70
2018-02-16T12:40:21.232Z,74.40
2018-02-16T12:42:56.092Z,74.97
2018-02-16T12:45:31.583Z,75.01
2018-02-16T12:48:06.258Z,75.45
2018-02-16T12:50:41.595Z,74.38
2018-02-16T12:53:16.711Z,73.83
2018-02-16T12:55:51.593Z,72.04
2018-02-16T12:58:26.209Z,71.13
2018-02-16T13:01:01.620Z,70.59
2018-02-16T13:03:36.731Z,70.91
2018-02-16T13:06:12.142Z,70.11
2018-02-16T13:08:47.791Z,69.44
2018-02-16T13:11:22.207Z,68.99
2018-02-16T13:13:57.071Z,67.80
2018-02-16T13:16:32.078Z,68.43
2018-02-16T13:19:07.107Z,68.23
2018-02-16T13:21:42.919Z,68.55
2018-02-16T13:24:18.043Z,68.32
2018-02-16T13:26:52.828Z,65.28
2018-02-16T13:29:28.021Z,65.39
2018-02-16T13:32:02.911Z,64.76
2018-02-16T13:34:37.803Z,64.46
2018-02-16T13:37:12.742Z,65.63
2018-02-16T13:39:47.184Z,64.76
2018-02-16T13:42:22.175Z,62.11
2018-02-16T13:44:57.211Z,63.53
2018-02-16T13:47:32.262Z,63.08
2018-02-16T13:50:07.435Z,63.51
2018-02-16T13:52:42.352Z,63.55
2018-02-16T13:55:17.413Z,64.55
2018-02-16T13:57:52.223Z,65.92
2018-02-16T14:00:27.123Z,65.63
2018-02-16T14:03:01.998Z,64.98
2018-02-16T14:05:36.927Z,65.25
2018-02-16T14:08:12.186Z,65.55
2018-02-16T14:10:46.834Z,65.95
2018-02-16T14:13:22.105Z,66.94
2018-02-16T14:15:57.006Z,67.13
2018-02-16T14:18:32.017Z,66.77
2018-02-16T14:21:07.154Z,66.42
2018-02-16T14:23:42.098Z,65.88
2018-02-16T14:26:17.159Z,66.52
2018-02-16T14:28:52.068Z,66.00
2018-02-16T14:31:27.115Z,65.86
2018-02-16T14:34:01.975Z,65.97
2018-02-16T14:36:36.534Z,65.60
2018-02-16T14:39:12.192Z,65.07
2018-02-16T14:41:47.157Z,65.00
2018-02-16T14:44:22.319Z,64.04
2018-02-16T14:46:57.295Z,65.35
2018-02-16T14:49:31.931Z,65.49
2018-02-16T14:52:07.015Z,65.20
2018-02-16T14:54:41.944Z,64.97
2018-02-16T14:57:16.903Z,65.59
2018-02-16T14:59:51.900Z,65.80
2018-02-16T15:02:26.567Z,65.12
2018-02-16T15:05:01.596Z,64.97
2018-02-16T15:07:36.399Z,64.54
2018-02-16T15:10:12.267Z,65.18
2018-02-16T15:12:47.262Z,65.41
2018-02-16T15:15:22.235Z,65.80
2018-02-16T15:17:57.962Z,65.84
2018-02-16T15:20:32.694Z,66.00
2018-02-16T15:23:07.999Z,66.02
2018-02-16T15:25:43.055Z,65.29
2018-02-16T15:28:18.239Z,65.12
2018-02-16T15:30:52.843Z,65.29
2018-02-16T15:33:28.218Z,65.37
2018-02-16T15:36:03.116Z,64.84
2018-02-16T15:38:38.116Z,64.37
2018-02-16T15:41:13.147Z,64.54
2018-02-16T15:43:48.014Z,65.03
2018-02-16T15:46:23.251Z,64.61
2018-02-16T15:48:58.451Z,65.18
2018-02-16T15:51:33.184Z,65.37
2018-02-16T15:54:08.166Z,65.09
2018-02-16T15:56:42.995Z,65.54
2018-02-16T15:59:17.639Z,64.97
2018-02-16T16:01:52.596Z,64.95
2018-02-16T16:04:27.514Z,65.04
2018-02-16T16:07:02.598Z,65.34
2018-02-16T16:09:37.511Z,65.52
2018-02-16T16:12:12.482Z,65.92
2018-02-16T16:14:47.375Z,66.37
2018-02-16T16:17:22.866Z,66.84
2018-02-16T16:19:58.211Z,67.07
2018-02-16T16:22:33.214Z,66.91
2018-02-16T16:25:08.207Z,66.90
2018-02-16T16:27:43.019Z,67.00
2018-02-16T16:30:18.319Z,67.56
2018-02-16T16:32:53.259Z,67.52
2018-02-16T16:35:28.418Z,67.26
2018-02-16T16:38:03.263Z,67.50
2018-02-16T16:40:38.263Z,67.65
2018-02-16T16:43:13.559Z,68.14
2018-02-16T16:45:48.358Z,67.99
2018-02-16T16:48:23.423Z,68.31
2018-02-16T16:50:58.330Z,68.40
2018-02-16T16:53:33.378Z,68.16
2018-02-16T16:56:09.347Z,68.49
2018-02-16T16:58:44.247Z,68.53
2018-02-16T17:01:18.315Z,68.72
2018-02-16T17:03:52.496Z,68.98
2018-02-16T17:06:27.461Z,69.17
2018-02-16T17:09:02.589Z,69.09
2018-02-16T17:11:37.375Z,69.22
2018-02-16T17:14:12.667Z,69.46
2018-02-16T17:16:47.527Z,69.65
2018-02-16T17:19:22.099Z,69.83
2018-02-16T17:21:57.454Z,69.94
2018-02-16T17:24:32.026Z,70.08
2018-02-16T17:27:07.286Z,70.26
2018-02-16T17:29:42.359Z,70.41
2018-02-16T17:32:16.895Z,70.51
2018-02-16T17:34:52.286Z,70.81
2018-02-16T17:37:27.216Z,71.16
2018-02-16T17:40:02.278Z,71.29
2018-02-16T17:42:37.287Z,71.59
2018-02-16T17:45:12.180Z,71.76
2018-02-16T17:47:46.899Z,71.87
2018-02-16T17:50:21.786Z,72.01
2018-02-16T17:52:56.744Z,72.27
2018-02-16T17:55:32.004Z,72.54
2018-02-16T17:58:07.016Z,72.94
2018-02-16T18:00:41.672Z,73.21
2018-02-16T18:03:16.782Z,73.36
2018-02-16T18:05:51.727Z,73.43
2018-02-16T18:08:26.563Z,73.38
2018-02-16T18:11:01.170Z,73.36
2018-02-16T18:13:36.312Z,73.43
2018-02-16T18:16:11.722Z,73.44
2018-02-16T18:18:46.803Z,73.17
2018-02-16T18:21:22.614Z,73.17
2018-02-16T18:23:57.839Z,73.13
2018-02-16T18:26:32.951Z,73.23
2018-02-16T18:29:07.971Z,73.23
2018-02-16T18:31:42.799Z,73.19
2018-02-16T18:34:17.419Z,73.09
2018-02-16T18:36:52.762Z,72.97
2018-02-16T18:39:28.001Z,73.09
2018-02-16T18:42:02.787Z,73.27
2018-02-16T18:44:37.423Z,73.55
2018-02-16T18:47:12.127Z,73.97
2018-02-16T18:49:47.514Z,74.37
2018-02-16T18:52:22.235Z,75.05
2018-02-16T18:54:57.399Z,75.61
2018-02-16T18:57:32.143Z,76.15
2018-02-16T19:00:06.706Z,76.49
2018-02-16T19:02:42.743Z,76.49
2018-02-16T19:05:17.975Z,76.29
2018-02-16T19:07:52.919Z,76.11
2018-02-16T19:10:27.379Z,75.95
2018-02-16T19:13:02.602Z,75.82
2018-02-16T19:15:37.182Z,75.71
2018-02-16T19:18:12.038Z,75.57
2018-02-16T19:20:46.979Z,75.62
2018-02-16T19:23:22.031Z,75.85
2018-02-16T19:25:56.878Z,75.97
2018-02-16T19:28:31.622Z,76.13
2018-02-16T19:31:06.710Z,76.13
2018-02-16T19:33:41.731Z,76.32
2018-02-16T19:36:17.800Z,76.32
2018-02-16T19:38:54.067Z,76.19
2018-02-16T19:41:29.610Z,76.07
2018-02-16T19:44:04.104Z,75.95
2018-02-16T19:46:39.480Z,75.87
2018-02-16T19:49:14.795Z,75.90
2018-02-16T19:51:50.354Z,75.95
2018-02-16T19:54:24.893Z,76.04
2018-02-16T19:57:00.303Z,76.13
2018-02-16T19:59:35.992Z,76.18
2018-02-16T20:02:10.998Z,76.26
2018-02-16T20:04:46.466Z,76.43
2018-02-16T20:07:21.438Z,76.57
2018-02-16T20:09:56.488Z,77.06
2018-02-16T20:12:31.594Z,77.26
2018-02-16T20:15:07.018Z,77.30
2018-02-16T20:17:42.157Z,77.24
2018-02-16T20:20:16.995Z,76.98
2018-02-16T20:22:51.255Z,76.77
2018-02-16T20:25:26.616Z,76.67
2018-02-16T20:28:01.307Z,76.69
2018-02-16T20:30:36.325Z,76.78
2018-02-16T20:33:11.179Z,76.87
2018-02-16T20:35:46.518Z,76.97
2018-02-16T20:38:21.530Z,77.08
2018-02-16T20:40:56.176Z,77.11
2018-02-16T20:43:31.167Z,81.80
2018-02-16T20:46:06.485Z,98.70
2018-02-16T20:48:41.419Z,96.21
2018-02-16T20:51:16.310Z,82.89
2018-02-16T20:53:51.510Z,73.57
2018-02-16T20:56:26.531Z,69.55
2018-02-16T20:59:01.587Z,65.95
2018-02-16T21:01:36.447Z,64.71
2018-02-16T21:04:11.668Z,63.51
2018-02-16T21:06:46.494Z,62.04
2018-02-16T21:09:21.822Z,61.25
2018-02-16T21:11:56.871Z,61.04
2018-02-16T21:14:31.843Z,60.09
2018-02-16T21:17:07.291Z,59.22
2018-02-16T21:19:42.911Z,57.28
2018-02-16T21:22:18.243Z,58.28
2018-02-16T21:24:53.172Z,59.54
2018-02-16T21:27:28.095Z,61.40
2018-02-16T21:30:02.658Z,63.56
2018-02-16T21:32:37.720Z,65.55
2018-02-16T21:35:12.509Z,67.48
2018-02-16T21:37:47.415Z,68.98
2018-02-16T21:40:22.218Z,69.94
2018-02-16T21:42:57.299Z,70.92
2018-02-16T21:45:32.419Z,71.69
2018-02-16T21:48:07.403Z,72.41
2018-02-16T21:50:41.786Z,72.94
2018-02-16T21:53:17.240Z,73.35
2018-02-16T21:55:52.531Z,73.95
2018-02-16T21:58:27.791Z,74.28
2018-02-16T22:01:03.176Z,74.63
2018-02-16T22:03:37.847Z,75.02
2018-02-16T22:06:12.792Z,75.28
2018-02-16T22:08:47.869Z,75.67
2018-02-16T22:11:22.473Z,76.00
2018-02-16T22:13:57.768Z,76.36
2018-02-16T22:16:32.438Z,76.68
2018-02-16T22:19:07.650Z,77.18
2018-02-16T22:21:42.387Z,77.22
2018-02-16T22:24:17.438Z,77.16
2018-02-16T22:26:52.074Z,77.48
2018-02-16T22:29:26.823Z,77.55
2018-02-16T22:32:01.683Z,77.57
2018-02-16T22:34:36.367Z,77.61
2018-02-16T22:37:11.331Z,77.74
2018-02-16T22:39:46.726Z,77.94
2018-02-16T22:42:21.475Z,78.12
2018-02-16T22:44:56.724Z,78.28
2018-02-16T22:47:31.823Z,78.38
2018-02-16T22:50:06.975Z,78.61
2018-02-16T22:52:42.013Z,78.83
2018-02-16T22:55:16.464Z,79.18
2018-02-16T22:57:51.229Z,79.44
2018-02-16T23:00:25.917Z,79.61
2018-02-16T23:03:01.423Z,79.79
2018-02-16T23:05:36.547Z,80.00
2018-02-16T23:08:11.590Z,80.21
2018-02-16T23:10:46.947Z,80.48
2018-02-16T23:13:21.730Z,80.66
2018-02-16T23:15:56.815Z,80.68
2018-02-16T23:18:31.834Z,80.72
2018-02-16T23:21:06.907Z,80.82
2018-02-16T23:23:41.418Z,81.02
2018-02-16T23:26:16.746Z,81.27
2018-02-16T23:28:51.703Z,81.50
2018-02-16T23:31:27.004Z,81.79
2018-02-16T23:34:02.623Z,82.10
2018-02-16T23:36:38.287Z,82.45
2018-02-16T23:39:13.591Z,82.68
2018-02-16T23:41:48.887Z,83.07
2018-02-16T23:44:23.893Z,83.39
2018-02-16T23:46:59.530Z,83.71
2018-02-16T23:49:34.532Z,83.93
2018-02-16T23:52:09.567Z,84.18
2018-02-16T23:54:44.832Z,84.23
2018-02-16T23:57:18.988Z,84.23
2018-02-16T23:59:53.426Z,84.21
